createdAt,value
2023-05-22T00:00:06.853Z,0.00
2023-05-22T00:01:06.903Z,0.00
2023-05-22T00:02:06.865Z,0.00
2023-05-22T00:03:06.942Z,0.00
2023-05-22T00:04:06.872Z,0.00
2023-05-22T00:05:06.895Z,0.00
2023-05-22T00:06:06.802Z,0.00
2023-05-22T00:07:06.778Z,0.00
2023-05-22T00:08:06.776Z,0.00
2023-05-22T00:09:06.785Z,0.00
2023-05-22T00:10:06.843Z,0.00
2023-05-22T00:11:06.764Z,0.00
2023-05-22T00:12:06.739Z,0.00
2023-05-22T00:13:06.710Z,0.00
2023-05-22T00:14:06.729Z,0.00
2023-05-22T00:15:06.690Z,0.00
2023-05-22T00:16:06.670Z,0.00
2023-05-22T00:17:06.816Z,0.00
2023-05-22T00:18:06.787Z,0.00
2023-05-22T00:19:06.642Z,0.00
2023-05-22T00:20:06.650Z,0.00
2023-05-22T00:21:06.617Z,0.00
2023-05-22T00:22:06.630Z,0.00
2023-05-22T00:23:06.695Z,0.00
2023-05-22T00:24:06.611Z,0.00
2023-05-22T00:25:06.621Z,0.00
2023-05-22T00:26:06.573Z,0.00
2023-05-22T00:27:06.581Z,0.00
2023-05-22T00:28:06.538Z,0.00
2023-05-22T00:29:06.528Z,0.00
2023-05-22T00:30:06.543Z,0.00
2023-05-22T00:31:06.502Z,0.00
2023-05-22T00:32:06.556Z,0.00
2023-05-22T00:33:06.564Z,0.00
2023-05-22T00:34:06.521Z,0.00
2023-05-22T00:35:06.491Z,0.00
2023-05-22T00:36:06.454Z,0.00
2023-05-22T00:37:06.486Z,0.00
2023-05-22T00:38:06.463Z,0.00
2023-05-22T00:39:06.426Z,0.00
2023-05-22T00:40:06.443Z,0.00
2023-05-22T00:41:06.417Z,0.00
2023-05-22T00:42:06.547Z,0.00
2023-05-22T00:43:06.423Z,0.00
2023-05-22T00:44:06.399Z,0.00
2023-05-22T00:45:06.393Z,0.00
2023-05-22T00:46:06.381Z,0.00
2023-05-22T00:47:06.408Z,0.00
2023-05-22T00:48:06.429Z,0.00
2023-05-22T00:49:06.335Z,0.00
2023-05-22T00:50:06.374Z,0.00
2023-05-22T00:51:06.284Z,0.00
2023-05-22T00:52:06.299Z,0.00
2023-05-22T00:53:06.263Z,0.00
2023-05-22T00:54:06.263Z,0.00
2023-05-22T00:55:06.380Z,0.00
2023-05-22T00:56:06.230Z,0.00
2023-05-22T00:57:06.304Z,0.00
2023-05-22T00:58:06.217Z,0.00
2023-05-22T00:59:06.323Z,0.00
2023-05-22T01:00:06.321Z,0.00
2023-05-22T01:01:06.176Z,0.00
2023-05-22T01:02:06.359Z,0.00
2023-05-22T01:03:06.278Z,0.00
2023-05-22T01:04:06.190Z,0.00
2023-05-22T01:05:06.232Z,0.00
2023-05-22T01:06:06.130Z,0.00
2023-05-22T01:07:06.162Z,0.00
2023-05-22T01:08:06.111Z,0.00
2023-05-22T01:09:06.094Z,0.00
2023-05-22T01:10:06.228Z,0.00
2023-05-22T01:11:06.060Z,0.00
2023-05-22T01:12:06.086Z,0.00
2023-05-22T01:13:06.050Z,0.00
2023-05-22T01:14:06.034Z,0.00
2023-05-22T01:15:06.199Z,0.00
2023-05-22T01:16:06.040Z,0.00
2023-05-22T01:17:06.004Z,0.00
2023-05-22T01:18:06.030Z,0.00
2023-05-22T01:19:06.026Z,0.00
2023-05-22T01:20:06.074Z,0.00
2023-05-22T01:21:05.948Z,0.00
2023-05-22T01:22:05.954Z,0.00
2023-05-22T01:23:05.976Z,0.00
2023-05-22T01:24:05.917Z,0.00
2023-05-22T01:25:05.915Z,0.00
2023-05-22T01:26:05.939Z,0.00
2023-05-22T01:27:05.883Z,0.00
2023-05-22T01:28:05.889Z,0.00
2023-05-22T01:29:05.880Z,0.00
2023-05-22T01:30:05.871Z,0.00
2023-05-22T01:31:05.937Z,0.00
2023-05-22T01:32:05.852Z,0.00
2023-05-22T01:33:05.908Z,0.00
2023-05-22T01:34:05.864Z,0.00
2023-05-22T01:35:05.806Z,0.00
2023-05-22T01:36:05.798Z,0.00
2023-05-22T01:37:05.789Z,0.00
2023-05-22T01:38:05.801Z,0.00
2023-05-22T01:39:05.767Z,0.00
2023-05-22T01:40:05.773Z,0.00
2023-05-22T01:41:05.733Z,0.00
2023-05-22T01:42:05.718Z,0.00
2023-05-22T01:43:05.721Z,0.00
2023-05-22T01:44:05.718Z,0.00
2023-05-22T01:45:05.729Z,0.00
2023-05-22T01:46:05.701Z,0.00
2023-05-22T01:47:05.698Z,0.00
2023-05-22T01:48:05.723Z,0.00
2023-05-22T01:49:05.657Z,0.00
2023-05-22T01:50:05.705Z,0.00
2023-05-22T01:51:05.634Z,0.00
2023-05-22T01:52:05.612Z,0.00
2023-05-22T01:53:05.617Z,0.00
2023-05-22T01:54:05.582Z,0.00
2023-05-22T01:55:05.609Z,0.00
2023-05-22T01:56:05.613Z,0.00
2023-05-22T01:57:05.569Z,0.00
2023-05-22T01:58:05.556Z,0.00
2023-05-22T01:59:05.534Z,0.00
2023-05-22T02:00:05.529Z,0.00
2023-05-22T02:01:05.561Z,0.00
2023-05-22T02:02:05.565Z,0.00
2023-05-22T02:03:05.652Z,0.00
2023-05-22T02:04:05.483Z,0.00
2023-05-22T02:05:05.471Z,0.00
2023-05-22T02:06:05.454Z,0.00
2023-05-22T02:07:05.474Z,0.00
2023-05-22T02:08:05.428Z,0.00
2023-05-22T02:09:05.439Z,0.00
2023-05-22T02:10:05.405Z,0.00
2023-05-22T02:11:05.415Z,0.00
2023-05-22T02:12:05.411Z,0.00
2023-05-22T02:13:05.395Z,0.00
2023-05-22T02:14:05.364Z,0.00
2023-05-22T02:15:05.415Z,0.00
2023-05-22T02:16:05.367Z,0.00
2023-05-22T02:17:05.332Z,0.00
2023-05-22T02:18:05.386Z,0.00
2023-05-22T02:19:05.405Z,0.00
2023-05-22T02:20:05.327Z,0.00
2023-05-22T02:21:05.302Z,0.00
2023-05-22T02:22:05.288Z,0.00
2023-05-22T02:23:05.280Z,0.00
2023-05-22T02:24:05.250Z,0.00
2023-05-22T02:25:05.254Z,0.00
2023-05-22T02:26:05.256Z,0.00
2023-05-22T02:27:05.228Z,0.00
2023-05-22T02:28:05.219Z,0.00
2023-05-22T02:29:05.234Z,0.00
2023-05-22T02:30:05.199Z,0.00
2023-05-22T02:31:05.218Z,0.00
2023-05-22T02:32:05.161Z,0.00
2023-05-22T02:33:05.185Z,0.00
2023-05-22T02:34:05.153Z,0.00
2023-05-22T02:35:05.168Z,0.00
2023-05-22T02:36:05.176Z,0.00
2023-05-22T02:37:05.133Z,0.00
2023-05-22T02:38:05.089Z,0.00
2023-05-22T02:39:05.083Z,0.00
2023-05-22T02:40:05.095Z,0.00
2023-05-22T02:41:05.080Z,0.00
2023-05-22T02:42:05.064Z,0.00
2023-05-22T02:43:05.052Z,0.00
2023-05-22T02:44:05.039Z,0.00
2023-05-22T02:45:05.027Z,0.00
2023-05-22T02:46:05.057Z,0.00
2023-05-22T02:47:05.003Z,0.00
2023-05-22T02:48:04.997Z,0.00
2023-05-22T02:49:04.981Z,0.00
2023-05-22T02:50:04.964Z,0.00
2023-05-22T02:51:04.994Z,0.00
2023-05-22T02:52:04.944Z,0.00
2023-05-22T02:53:04.926Z,0.00
2023-05-22T02:54:04.923Z,0.00
2023-05-22T02:55:04.921Z,0.00
2023-05-22T02:56:04.909Z,0.00
2023-05-22T02:57:04.876Z,0.00
2023-05-22T02:58:04.859Z,0.00
2023-05-22T02:59:04.866Z,0.00
2023-05-22T03:00:04.835Z,0.00
2023-05-22T03:01:04.844Z,0.00
2023-05-22T03:02:05.013Z,0.00
2023-05-22T03:03:04.943Z,0.00
2023-05-22T03:04:04.874Z,0.00
2023-05-22T03:05:04.797Z,0.00
2023-05-22T03:06:04.765Z,4.00
2023-05-22T03:07:04.784Z,4.00
2023-05-22T03:08:04.772Z,4.00
2023-05-22T03:09:04.778Z,4.00
2023-05-22T03:10:04.740Z,0.00
2023-05-22T03:11:04.728Z,4.00
2023-05-22T03:12:04.722Z,4.00
2023-05-22T03:13:04.706Z,8.00
2023-05-22T03:14:04.688Z,4.00
2023-05-22T03:15:04.696Z,8.00
2023-05-22T03:16:04.709Z,8.00
2023-05-22T03:17:04.667Z,8.00
2023-05-22T03:18:04.645Z,8.00
2023-05-22T03:19:04.722Z,8.00
2023-05-22T03:20:04.608Z,8.00
2023-05-22T03:21:04.599Z,12.00
2023-05-22T03:22:04.611Z,12.00
2023-05-22T03:23:04.613Z,16.00
2023-05-22T03:24:04.566Z,16.00
2023-05-22T03:25:04.619Z,16.00
2023-05-22T03:26:04.580Z,20.00
2023-05-22T03:27:04.534Z,20.00
2023-05-22T03:28:04.547Z,20.00
2023-05-22T03:29:04.565Z,24.00
2023-05-22T03:30:04.499Z,24.00
2023-05-22T03:31:04.531Z,32.00
2023-05-22T03:32:04.504Z,32.00
2023-05-22T03:33:04.516Z,32.00
2023-05-22T03:34:04.520Z,36.00
2023-05-22T03:35:04.447Z,40.00
2023-05-22T03:36:04.456Z,44.00
2023-05-22T03:37:04.446Z,44.00
2023-05-22T03:38:04.434Z,44.00
2023-05-22T03:39:04.440Z,52.00
2023-05-22T03:40:04.404Z,56.00
2023-05-22T03:41:04.381Z,56.00
2023-05-22T03:42:04.380Z,60.00
2023-05-22T03:43:04.378Z,64.00
2023-05-22T03:44:04.343Z,72.00
2023-05-22T03:45:04.350Z,76.00
2023-05-22T03:46:04.352Z,80.00
2023-05-22T03:47:04.318Z,84.00
2023-05-22T03:48:04.389Z,92.00
2023-05-22T03:49:04.304Z,96.00
2023-05-22T03:50:04.305Z,104.00
2023-05-22T03:51:04.296Z,108.00
2023-05-22T03:52:04.255Z,116.00
2023-05-22T03:53:04.237Z,124.00
2023-05-22T03:54:04.233Z,132.00
2023-05-22T03:55:04.252Z,140.00
2023-05-22T03:56:04.237Z,148.00
2023-05-22T03:57:04.200Z,156.00
2023-05-22T03:58:04.173Z,164.00
2023-05-22T03:59:04.183Z,176.00
2023-05-22T04:00:04.156Z,184.00
2023-05-22T04:01:04.179Z,196.00
2023-05-22T04:02:04.186Z,208.00
2023-05-22T04:03:04.193Z,220.00
2023-05-22T04:04:04.124Z,232.00
2023-05-22T04:05:04.156Z,248.00
2023-05-22T04:06:04.087Z,260.00
2023-05-22T04:07:04.109Z,276.00
2023-05-22T04:08:04.072Z,288.00
2023-05-22T04:09:04.054Z,304.00
2023-05-22T04:10:04.059Z,320.00
2023-05-22T04:11:04.071Z,332.00
2023-05-22T04:12:04.055Z,348.00
2023-05-22T04:13:04.002Z,368.00
2023-05-22T04:14:04.005Z,384.00
2023-05-22T04:15:03.986Z,396.00
2023-05-22T04:16:04.037Z,416.00
2023-05-22T04:17:03.991Z,428.00
2023-05-22T04:18:03.970Z,448.00
2023-05-22T04:19:04.023Z,460.00
2023-05-22T04:20:03.921Z,476.00
2023-05-22T04:21:03.948Z,492.00
2023-05-22T04:22:03.899Z,508.00
2023-05-22T04:23:03.894Z,524.00
2023-05-22T04:24:03.887Z,540.00
2023-05-22T04:25:03.881Z,552.00
2023-05-22T04:26:03.854Z,568.00
2023-05-22T04:27:03.898Z,580.00
2023-05-22T04:28:03.834Z,600.00
2023-05-22T04:29:03.821Z,612.00
2023-05-22T04:30:03.819Z,628.00
2023-05-22T04:31:03.841Z,648.00
2023-05-22T04:32:03.801Z,664.00
2023-05-22T04:33:03.823Z,680.00
2023-05-22T04:34:03.762Z,704.00
2023-05-22T04:35:03.778Z,728.00
2023-05-22T04:36:03.741Z,756.00
2023-05-22T04:37:03.742Z,788.00
2023-05-22T04:38:03.824Z,816.00
2023-05-22T04:39:03.707Z,840.00
2023-05-22T04:40:03.690Z,868.00
2023-05-22T04:41:03.686Z,884.00
2023-05-22T04:42:03.682Z,912.00
2023-05-22T04:43:03.724Z,932.00
2023-05-22T04:44:03.673Z,956.00
2023-05-22T04:45:03.652Z,988.00
2023-05-22T04:46:03.622Z,1016.00
2023-05-22T04:47:06.004Z,1048.00
2023-05-22T04:48:03.629Z,1072.00
2023-05-22T04:49:03.622Z,1108.00
2023-05-22T04:50:03.575Z,1140.00
2023-05-22T04:51:03.572Z,1180.00
2023-05-22T04:52:03.575Z,1220.00
2023-05-22T04:53:03.549Z,1256.00
2023-05-22T04:54:03.544Z,1296.00
2023-05-22T04:55:05.964Z,1332.00
2023-05-22T04:56:03.516Z,1376.00
2023-05-22T04:57:03.527Z,1416.00
2023-05-22T04:58:03.491Z,1476.00
2023-05-22T04:59:03.516Z,1496.00
2023-05-22T05:00:03.486Z,1536.00
2023-05-22T05:01:03.509Z,1600.00
2023-05-22T05:02:03.453Z,1608.00
2023-05-22T05:03:03.497Z,1636.00
2023-05-22T05:04:03.683Z,1704.00
2023-05-22T05:05:03.428Z,1712.00
2023-05-22T05:06:03.399Z,1768.00
2023-05-22T05:07:03.415Z,1824.00
2023-05-22T05:08:03.367Z,1856.00
2023-05-22T05:09:03.383Z,1912.00
2023-05-22T05:10:03.352Z,1924.00
2023-05-22T05:11:03.375Z,1960.00
2023-05-22T05:12:03.327Z,2000.00
2023-05-22T05:13:03.329Z,2020.00
2023-05-22T05:14:03.316Z,2064.00
2023-05-22T05:15:03.326Z,2136.00
2023-05-22T05:16:03.321Z,2184.00
2023-05-22T05:17:03.343Z,2284.00
2023-05-22T05:18:03.292Z,2268.00
2023-05-22T05:19:03.276Z,2352.00
2023-05-22T05:20:03.251Z,2412.00
2023-05-22T05:21:03.241Z,2416.00
2023-05-22T05:22:03.228Z,2476.00
2023-05-22T05:23:03.207Z,2492.00
2023-05-22T05:24:03.191Z,2516.00
2023-05-22T05:25:03.179Z,2388.00
2023-05-22T05:26:03.179Z,2508.00
2023-05-22T05:27:03.181Z,2392.00
2023-05-22T05:28:03.144Z,2560.00
2023-05-22T05:29:03.151Z,2552.00
2023-05-22T05:30:03.129Z,2592.00
2023-05-22T05:31:03.146Z,2676.00
2023-05-22T05:32:03.198Z,2740.00
2023-05-22T05:33:03.154Z,2884.00
2023-05-22T05:34:03.088Z,2932.00
2023-05-22T05:35:03.102Z,2968.00
2023-05-22T05:36:03.056Z,3264.00
2023-05-22T05:37:03.170Z,3304.00
2023-05-22T05:38:03.046Z,3152.00
2023-05-22T05:39:03.025Z,3280.00
2023-05-22T05:40:03.021Z,3252.00
2023-05-22T05:41:03.035Z,3412.00
2023-05-22T05:42:03.008Z,3420.00
2023-05-22T05:43:03.017Z,3448.00
2023-05-22T05:44:02.982Z,3336.00
2023-05-22T05:45:02.966Z,3168.00
2023-05-22T05:46:02.973Z,3128.00
2023-05-22T05:47:02.972Z,3172.00
2023-05-22T05:48:02.967Z,3352.00
2023-05-22T05:49:02.913Z,3344.00
2023-05-22T05:50:02.913Z,3288.00
2023-05-22T05:51:02.900Z,3284.00
2023-05-22T05:52:02.905Z,3240.00
2023-05-22T05:53:02.869Z,3304.00
2023-05-22T05:54:02.868Z,3456.00
2023-05-22T05:55:02.877Z,3332.00
2023-05-22T05:56:02.847Z,3504.00
2023-05-22T05:57:02.845Z,3552.00
2023-05-22T05:58:02.831Z,3492.00
2023-05-22T05:59:02.816Z,3380.00
2023-05-22T06:00:02.886Z,3264.00
2023-05-22T06:01:02.779Z,3120.00
2023-05-22T06:02:02.791Z,3076.00
2023-05-22T06:03:02.877Z,3064.00
2023-05-22T06:04:02.848Z,2980.00
2023-05-22T06:05:02.784Z,2916.00
2023-05-22T06:06:02.756Z,3008.00
2023-05-22T06:07:02.734Z,2988.00
2023-05-22T06:08:02.717Z,3220.00
2023-05-22T06:09:02.687Z,3072.00
2023-05-22T06:10:02.698Z,3264.00
2023-05-22T06:11:02.675Z,3044.00
2023-05-22T06:12:02.673Z,3772.00
2023-05-22T06:13:02.644Z,3748.00
2023-05-22T06:14:02.649Z,4148.00
2023-05-22T06:15:02.623Z,3376.00
2023-05-22T06:16:06.420Z,4032.00
2023-05-22T06:17:02.673Z,3800.00
2023-05-22T06:18:02.653Z,3836.00
2023-05-22T06:19:02.638Z,3512.00
2023-05-22T06:20:02.567Z,3608.00
2023-05-22T06:21:02.577Z,3124.00
2023-05-22T06:22:02.567Z,3072.00
2023-05-22T06:23:02.553Z,3176.00
2023-05-22T06:24:02.551Z,3492.00
2023-05-22T06:25:02.511Z,4220.00
2023-05-22T06:26:02.528Z,4772.00
2023-05-22T06:27:02.524Z,4484.00
2023-05-22T06:28:02.494Z,3696.00
2023-05-22T06:29:02.482Z,3844.00
2023-05-22T06:30:04.311Z,3980.00
2023-05-22T06:31:02.448Z,4112.00
2023-05-22T06:32:02.534Z,4044.00
2023-05-22T06:33:02.567Z,4580.00
2023-05-22T06:34:02.594Z,4980.00
2023-05-22T06:35:02.441Z,5612.00
2023-05-22T06:36:02.411Z,5408.00
2023-05-22T06:37:02.581Z,5300.00
2023-05-22T06:38:02.372Z,5464.00
2023-05-22T06:39:02.395Z,5128.00
2023-05-22T06:40:02.353Z,5408.00
2023-05-22T06:41:02.345Z,3916.00
2023-05-22T06:42:02.369Z,4756.00
2023-05-22T06:43:02.331Z,5208.00
2023-05-22T06:44:02.320Z,4884.00
2023-05-22T06:45:02.308Z,4520.00
2023-05-22T06:46:02.318Z,4964.00
2023-05-22T06:47:02.287Z,4828.00
2023-05-22T06:48:02.343Z,4760.00
2023-05-22T06:49:02.246Z,4508.00
2023-05-22T06:50:02.247Z,4176.00
2023-05-22T06:51:02.270Z,3776.00
2023-05-22T06:52:04.509Z,4428.00
2023-05-22T06:53:02.210Z,4732.00
2023-05-22T06:54:02.210Z,4740.00
2023-05-22T06:55:02.190Z,4844.00
2023-05-22T06:56:02.180Z,5880.00
2023-05-22T06:57:02.190Z,6932.00
2023-05-22T06:58:02.165Z,6948.00
2023-05-22T06:59:02.139Z,6536.00
2023-05-22T07:00:02.167Z,6124.00
2023-05-22T07:01:02.244Z,5980.00
2023-05-22T07:02:02.137Z,6444.00
2023-05-22T07:03:02.154Z,8856.00
2023-05-22T07:04:02.093Z,10548.00
2023-05-22T07:05:02.095Z,9048.00
2023-05-22T07:06:02.226Z,10916.00
2023-05-22T07:07:02.178Z,6428.00
2023-05-22T07:08:02.036Z,5544.00
2023-05-22T07:09:02.031Z,6836.00
2023-05-22T07:10:02.061Z,7448.00
2023-05-22T07:11:02.028Z,6680.00
2023-05-22T07:12:02.012Z,6320.00
2023-05-22T07:13:01.985Z,5616.00
2023-05-22T07:14:01.983Z,5396.00
2023-05-22T07:15:01.991Z,6416.00
2023-05-22T07:16:01.992Z,9636.00
2023-05-22T07:17:01.949Z,16352.00
2023-05-22T07:18:02.053Z,14336.00
2023-05-22T07:19:01.949Z,15232.00
2023-05-22T07:20:01.901Z,9384.00
2023-05-22T07:21:01.896Z,11816.00
2023-05-22T07:22:01.926Z,16096.00
2023-05-22T07:23:02.096Z,19168.00
2023-05-22T07:24:01.855Z,16640.00
2023-05-22T07:25:01.857Z,8728.00
2023-05-22T07:26:01.836Z,8084.00
2023-05-22T07:27:01.834Z,9920.00
2023-05-22T07:28:01.837Z,16928.00
2023-05-22T07:29:01.798Z,10340.00
2023-05-22T07:30:01.789Z,9208.00
2023-05-22T07:31:01.789Z,14592.00
2023-05-22T07:32:01.859Z,10620.00
2023-05-22T07:33:01.809Z,9536.00
2023-05-22T07:34:01.764Z,8992.00
2023-05-22T07:35:01.730Z,9780.00
2023-05-22T07:36:01.727Z,11760.00
2023-05-22T07:37:01.729Z,10944.00
2023-05-22T07:38:01.731Z,10088.00
2023-05-22T07:39:01.725Z,12504.00
2023-05-22T07:40:01.697Z,10760.00
2023-05-22T07:41:01.680Z,12216.00
2023-05-22T07:42:02.116Z,17024.00
2023-05-22T07:43:01.669Z,17600.00
2023-05-22T07:44:01.652Z,11648.00
2023-05-22T07:45:01.618Z,8904.00
2023-05-22T07:46:01.671Z,7036.00
2023-05-22T07:47:01.609Z,5156.00
2023-05-22T07:48:01.635Z,4824.00
2023-05-22T07:49:01.587Z,4036.00
2023-05-22T07:50:01.570Z,3920.00
2023-05-22T07:51:01.559Z,4192.00
2023-05-22T07:52:01.589Z,4148.00
2023-05-22T07:53:01.537Z,4276.00
2023-05-22T07:54:01.595Z,4956.00
2023-05-22T07:55:01.541Z,5768.00
2023-05-22T07:56:01.497Z,6068.00
2023-05-22T07:57:01.532Z,6560.00
2023-05-22T07:58:01.476Z,8192.00
2023-05-22T07:59:01.466Z,8788.00
2023-05-22T08:00:01.456Z,7888.00
2023-05-22T08:01:01.449Z,9208.00
2023-05-22T08:02:01.489Z,9080.00
2023-05-22T08:03:01.553Z,6624.00
2023-05-22T08:04:01.571Z,6032.00
2023-05-22T08:05:01.464Z,6124.00
2023-05-22T08:06:01.412Z,6240.00
2023-05-22T08:07:01.385Z,6924.00
2023-05-22T08:08:01.392Z,6708.00
2023-05-22T08:09:01.349Z,6056.00
2023-05-22T08:10:01.375Z,6628.00
2023-05-22T08:11:04.248Z,6312.00
2023-05-22T08:12:01.338Z,5668.00
2023-05-22T08:13:01.359Z,6076.00
2023-05-22T08:14:01.303Z,6860.00
2023-05-22T08:15:01.320Z,5772.00
2023-05-22T08:16:01.637Z,4864.00
2023-05-22T08:17:01.301Z,4376.00
2023-05-22T08:18:01.327Z,4340.00
2023-05-22T08:19:01.407Z,4908.00
2023-05-22T08:20:01.361Z,4980.00
2023-05-22T08:21:01.215Z,4376.00
2023-05-22T08:22:01.207Z,4360.00
2023-05-22T08:23:01.201Z,4608.00
2023-05-22T08:24:01.219Z,4772.00
2023-05-22T08:25:01.184Z,5012.00
2023-05-22T08:26:01.166Z,4776.00
2023-05-22T08:27:04.183Z,4712.00
2023-05-22T08:28:01.150Z,4556.00
2023-05-22T08:29:01.133Z,4640.00
2023-05-22T08:30:01.161Z,4584.00
2023-05-22T08:31:01.155Z,5084.00
2023-05-22T08:32:01.240Z,5232.00
2023-05-22T08:33:01.228Z,5556.00
2023-05-22T08:34:01.088Z,6396.00
2023-05-22T08:35:01.058Z,8236.00
2023-05-22T08:36:01.082Z,7596.00
2023-05-22T08:37:01.094Z,6276.00
2023-05-22T08:38:01.057Z,5500.00
2023-05-22T08:39:01.030Z,5748.00
2023-05-22T08:40:01.028Z,6132.00
2023-05-22T08:41:00.992Z,6512.00
2023-05-22T08:42:00.999Z,6596.00
2023-05-22T08:43:01.001Z,5708.00
2023-05-22T08:44:00.973Z,5116.00
2023-05-22T08:45:00.979Z,5572.00
2023-05-22T08:46:00.947Z,6064.00
2023-05-22T08:47:00.996Z,6440.00
2023-05-22T08:48:00.948Z,6272.00
2023-05-22T08:49:00.910Z,5268.00
2023-05-22T08:50:00.915Z,4804.00
2023-05-22T08:51:00.888Z,4596.00
2023-05-22T08:52:00.915Z,6112.00
2023-05-22T08:53:00.877Z,5392.00
2023-05-22T08:54:00.858Z,4008.00
2023-05-22T08:55:00.856Z,4844.00
2023-05-22T08:56:00.839Z,5808.00
2023-05-22T08:57:00.856Z,4848.00
2023-05-22T08:58:00.826Z,3764.00
2023-05-22T08:59:00.859Z,4344.00
2023-05-22T09:00:00.809Z,5356.00
2023-05-22T09:01:00.832Z,6516.00
2023-05-22T09:02:00.796Z,4976.00
2023-05-22T09:03:00.966Z,4888.00
2023-05-22T09:04:00.846Z,4364.00
2023-05-22T09:05:00.750Z,3872.00
2023-05-22T09:06:00.743Z,4644.00
2023-05-22T09:07:00.728Z,4004.00
2023-05-22T09:08:16.235Z,3808.00
2023-05-22T09:09:01.728Z,4492.00
2023-05-22T09:10:00.692Z,4136.00
2023-05-22T09:11:00.683Z,4772.00
2023-05-22T09:12:00.663Z,5132.00
2023-05-22T09:13:00.650Z,4688.00
2023-05-22T09:14:00.654Z,4372.00
2023-05-22T09:15:00.680Z,4496.00
2023-05-22T09:16:00.679Z,4012.00
2023-05-22T09:17:00.643Z,4308.00
2023-05-22T09:18:00.651Z,4612.00
2023-05-22T09:19:00.652Z,4984.00
2023-05-22T09:20:00.595Z,4916.00
2023-05-22T09:21:00.623Z,5500.00
2023-05-22T09:22:00.574Z,6028.00
2023-05-22T09:23:00.570Z,5908.00
2023-05-22T09:24:00.561Z,6560.00
2023-05-22T09:25:00.554Z,6240.00
2023-05-22T09:26:00.548Z,7372.00
2023-05-22T09:27:00.522Z,7904.00
2023-05-22T09:28:00.497Z,9008.00
2023-05-22T09:29:00.578Z,9072.00
2023-05-22T09:30:00.484Z,7828.00
2023-05-22T09:31:03.232Z,6168.00
2023-05-22T09:32:00.456Z,7648.00
2023-05-22T09:33:00.511Z,7564.00
2023-05-22T09:34:00.439Z,9556.00
2023-05-22T09:35:00.408Z,7624.00
2023-05-22T09:36:00.405Z,6292.00
2023-05-22T09:37:00.420Z,4932.00
2023-05-22T09:38:00.406Z,4164.00
2023-05-22T09:39:00.396Z,4880.00
2023-05-22T09:40:00.363Z,4896.00
2023-05-22T09:41:00.338Z,4220.00
2023-05-22T09:42:00.377Z,4112.00
2023-05-22T09:43:00.334Z,4240.00
2023-05-22T09:44:01.932Z,4776.00
2023-05-22T09:45:00.323Z,4572.00
2023-05-22T09:46:00.388Z,5428.00
2023-05-22T09:47:00.469Z,6468.00
2023-05-22T09:48:00.416Z,6104.00
2023-05-22T09:49:00.270Z,5696.00
2023-05-22T09:50:00.258Z,5980.00
2023-05-22T09:51:00.307Z,6172.00
2023-05-22T09:52:00.229Z,5512.00
2023-05-22T09:53:00.234Z,5080.00
2023-05-22T09:54:00.213Z,4948.00
2023-05-22T09:55:00.240Z,4564.00
2023-05-22T09:56:00.412Z,5436.00
2023-05-22T09:57:00.164Z,4744.00
2023-05-22T09:58:00.189Z,5052.00
2023-05-22T09:59:00.182Z,5408.00
2023-05-22T10:00:00.203Z,6248.00
2023-05-22T10:01:00.175Z,6468.00
2023-05-22T10:02:00.205Z,5212.00
2023-05-22T10:03:00.190Z,4676.00
2023-05-22T10:04:00.167Z,5368.00
2023-05-22T10:05:00.165Z,5224.00
2023-05-22T10:06:00.090Z,5340.00
2023-05-22T10:07:00.071Z,5192.00
2023-05-22T10:08:00.061Z,4636.00
2023-05-22T10:09:00.052Z,4608.00
2023-05-22T10:10:00.046Z,4952.00
2023-05-22T10:11:00.060Z,5176.00
2023-05-22T10:12:00.041Z,5968.00
2023-05-22T10:12:59.995Z,5528.00
2023-05-22T10:13:59.996Z,5104.00
2023-05-22T10:14:59.983Z,5616.00
2023-05-22T10:16:00.140Z,4892.00
2023-05-22T10:16:59.978Z,4136.00
2023-05-22T10:18:00.033Z,4240.00
2023-05-22T10:19:00.102Z,5076.00
2023-05-22T10:19:59.933Z,4900.00
2023-05-22T10:20:59.901Z,4664.00
2023-05-22T10:21:59.927Z,4412.00
2023-05-22T10:22:59.920Z,4248.00
2023-05-22T10:23:59.869Z,5152.00
2023-05-22T10:24:59.890Z,7580.00
2023-05-22T10:25:59.873Z,6540.00
2023-05-22T10:26:59.873Z,11444.00
2023-05-22T10:27:59.841Z,5796.00
2023-05-22T10:28:59.821Z,5768.00
2023-05-22T10:29:59.799Z,6460.00
2023-05-22T10:30:59.818Z,6080.00
2023-05-22T10:31:59.827Z,4732.00
2023-05-22T10:32:59.851Z,5380.00
2023-05-22T10:33:59.828Z,6300.00
2023-05-22T10:34:59.872Z,6292.00
2023-05-22T10:35:59.739Z,6436.00
2023-05-22T10:37:13.230Z,6024.00
2023-05-22T10:38:00.724Z,5580.00
2023-05-22T10:38:59.725Z,5428.00
2023-05-22T10:39:59.691Z,5756.00
2023-05-22T10:40:59.684Z,5212.00
2023-05-22T10:41:59.697Z,4860.00
2023-05-22T10:42:59.682Z,4808.00
2023-05-22T10:43:59.664Z,6540.00
2023-05-22T10:44:59.646Z,6536.00
2023-05-22T10:45:59.661Z,5752.00
2023-05-22T10:46:59.723Z,5800.00
2023-05-22T10:47:59.680Z,5984.00
2023-05-22T10:48:59.612Z,8048.00
2023-05-22T10:49:59.583Z,6976.00
2023-05-22T10:51:00.043Z,6628.00
2023-05-22T10:51:59.626Z,5316.00
2023-05-22T10:52:59.565Z,4684.00
2023-05-22T10:53:59.554Z,4740.00
2023-05-22T10:54:59.534Z,6616.00
2023-05-22T10:55:59.540Z,4740.00
2023-05-22T10:56:59.554Z,9584.00
2023-05-22T10:57:59.529Z,7028.00
2023-05-22T10:58:59.505Z,5300.00
2023-05-22T10:59:59.485Z,7224.00
2023-05-22T11:00:59.500Z,6176.00
2023-05-22T11:01:59.548Z,6744.00
2023-05-22T11:03:09.944Z,6584.00
2023-05-22T11:04:00.443Z,6256.00
2023-05-22T11:04:59.445Z,5900.00
2023-05-22T11:05:59.406Z,5568.00
2023-05-22T11:06:59.549Z,5492.00
2023-05-22T11:07:59.394Z,7892.00
2023-05-22T11:08:59.404Z,10052.00
2023-05-22T11:09:59.386Z,7664.00
2023-05-22T11:10:59.461Z,5720.00
2023-05-22T11:11:59.397Z,6644.00
2023-05-22T11:12:59.345Z,7696.00
2023-05-22T11:13:59.336Z,7796.00
2023-05-22T11:14:59.359Z,6336.00
2023-05-22T11:15:59.310Z,6388.00
2023-05-22T11:16:59.348Z,6736.00
2023-05-22T11:17:59.386Z,7412.00
2023-05-22T11:19:00.673Z,7176.00
2023-05-22T11:20:00.456Z,6820.00
2023-05-22T11:20:59.247Z,7384.00
2023-05-22T11:21:59.537Z,7072.00
2023-05-22T11:22:59.372Z,8196.00
2023-05-22T11:23:59.214Z,7756.00
2023-05-22T11:24:59.202Z,6488.00
2023-05-22T11:25:59.227Z,6472.00
2023-05-22T11:26:59.262Z,8812.00
2023-05-22T11:27:59.217Z,8936.00
2023-05-22T11:28:59.169Z,7144.00
2023-05-22T11:29:59.164Z,8152.00
2023-05-22T11:30:59.253Z,8308.00
2023-05-22T11:31:59.154Z,9812.00
2023-05-22T11:32:59.213Z,8164.00
2023-05-22T11:33:59.109Z,7316.00
2023-05-22T11:34:59.093Z,7284.00
2023-05-22T11:35:59.087Z,6936.00
2023-05-22T11:36:59.106Z,7456.00
2023-05-22T11:37:59.064Z,6552.00
2023-05-22T11:38:59.189Z,7044.00
2023-05-22T11:39:59.049Z,7376.00
2023-05-22T11:40:59.039Z,8668.00
2023-05-22T11:41:59.036Z,7808.00
2023-05-22T11:42:59.032Z,6984.00
2023-05-22T11:43:59.007Z,7996.00
2023-05-22T11:44:59.000Z,9356.00
2023-05-22T11:45:58.982Z,8428.00
2023-05-22T11:46:58.976Z,7936.00
2023-05-22T11:47:58.996Z,8664.00
2023-05-22T11:48:58.955Z,7736.00
2023-05-22T11:49:58.921Z,8008.00
2023-05-22T11:50:59.053Z,8528.00
2023-05-22T11:51:58.926Z,6664.00
2023-05-22T11:52:58.910Z,6200.00
2023-05-22T11:53:58.922Z,6492.00
2023-05-22T11:54:58.916Z,6268.00
2023-05-22T11:55:58.914Z,6928.00
2023-05-22T11:56:58.879Z,7144.00
2023-05-22T11:57:58.839Z,7884.00
2023-05-22T11:58:58.817Z,6424.00
2023-05-22T11:59:58.845Z,8032.00
2023-05-22T12:00:58.823Z,7596.00
2023-05-22T12:01:58.813Z,7212.00
2023-05-22T12:02:58.999Z,8976.00
2023-05-22T12:03:58.817Z,8840.00
2023-05-22T12:04:58.761Z,8484.00
2023-05-22T12:05:58.774Z,7164.00
2023-05-22T12:06:58.810Z,7516.00
2023-05-22T12:07:58.782Z,9640.00
2023-05-22T12:08:58.701Z,9156.00
2023-05-22T12:09:58.703Z,8552.00
2023-05-22T12:10:58.815Z,7476.00
2023-05-22T12:11:58.718Z,6852.00
2023-05-22T12:12:58.710Z,6904.00
2023-05-22T12:13:58.662Z,9388.00
2023-05-22T12:14:58.658Z,7828.00
2023-05-22T12:15:58.652Z,6952.00
2023-05-22T12:16:58.779Z,5816.00
2023-05-22T12:17:58.657Z,6020.00
2023-05-22T12:18:58.643Z,6504.00
2023-05-22T12:19:58.648Z,7692.00
2023-05-22T12:20:58.573Z,7176.00
2023-05-22T12:21:58.577Z,7812.00
2023-05-22T12:22:58.592Z,7916.00
2023-05-22T12:23:58.562Z,7036.00
2023-05-22T12:24:58.615Z,6992.00
2023-05-22T12:25:58.552Z,7588.00